Main page
METAR-TAF:

METAR-TAF

Airports :

Francis S. Gabreski Airport

Westhampton Beach, New York, United States

latitude: 40-51-03N, longitude: 072-37-14W, elevation: 66 ft

Current weather observation

The report was made 1 hour and 3 minutes ago, at 16:53 UTC
Wind 25 mph from the West with gusts up to 35 mph
Temperature 45°F
Humidity 49%
Pressure 29.45 in. Hg
Visibility: 10 miles
Overcast at a height of 4100 ft

METAR: KFOK 271653Z 28022G30KT 10SM OVC041 07/M03 A2945 RMK AO2 PK WND 29033/1638 SLP974 T00671028

Time: 12:56 (17:56 UTC)


TAF: missing

Weather observations and forecasts of more than 4000 airports (METAR and TAF reports).

The available stations are represented by yellow and red dots on the map.

Hover mouse over dot to see the name of the station.

Then click to see weather observations and forecasts.

To change the map : click on the green buttons with a black cross to zoom in, on the green button with a dash to zoom out, or on the green arrows for adjacent maps.


METAR-TAF: